EYVI/VNO METAR and TAF weather

Enter ICAO airport designator
Station Type Date Time Source
EYVI METAR 2018/09/21 23:20 UTC NOAA

EYVI 212320Z 17009KT CAVOK 17/12 Q1008 NOSIG


Station Type Date Time Source
EYVI Decoded METAR 2018/09/21 23:20 UTC NOAA

Vilnius, Lithuania (EYVI) 54-38N 025-06E 156M
Sep 21, 2018 - 07:20 PM EDT / 2018.09.21 2320 UTC
Wind: from the S (170 degrees) at 10 MPH (9 KT):0
Visibility: greater than 7 mile(s):0
Temperature: 62 F (17 C)
Dew Point: 53 F (12 C)
Relative Humidity: 72%
Pressure (altimeter): 29.77 in. Hg (1008 hPa)
ob: EYVI 212320Z 17009KT CAVOK 17/12 Q1008 NOSIG
cycle: 23

Station Type Date Time Source
EYVI TAF 2018/09/21 18:00 UTC NOAA

TAF EYVI 211713Z 2118/2218 17012KT CAVOK
BECMG 2203/2204 24012KT 9000 SCT010 BKN030
TEMPO 2204/2209 3000 TSRA SCT005 BKN020CB
TEMPO 2209/2218 SHRA BKN020CB


Example: see airport list